sensor_id;sensor_type;location;lat;lon;timestamp;pressure;altitude;pressure_sealevel;temperature
37452;BMP280;23314;51.114;6.900;2022-09-24T00:01:19;101054.94;;;16.06
37452;BMP280;23314;51.114;6.900;2022-09-24T00:03:53;101055.06;;;16.02
37452;BMP280;23314;51.114;6.900;2022-09-24T00:06:20;101058.63;;;15.99
37452;BMP280;23314;51.114;6.900;2022-09-24T00:08:47;101048.72;;;15.96
37452;BMP280;23314;51.114;6.900;2022-09-24T00:11:14;101046.16;;;15.93
37452;BMP280;23314;51.114;6.900;2022-09-24T00:13:40;101041.34;;;15.88
37452;BMP280;23314;51.114;6.900;2022-09-24T00:16:12;101037.97;;;15.83
37452;BMP280;23314;51.114;6.900;2022-09-24T00:18:38;101029.72;;;15.78
37452;BMP280;23314;51.114;6.900;2022-09-24T00:21:23;101031.56;;;15.68
37452;BMP280;23314;51.114;6.900;2022-09-24T00:23:57;101035.97;;;15.62
37452;BMP280;23314;51.114;6.900;2022-09-24T00:26:24;101044.91;;;15.59
37452;BMP280;23314;51.114;6.900;2022-09-24T00:29:09;101043.91;;;15.52
37452;BMP280;23314;51.114;6.900;2022-09-24T00:31:34;101044.03;;;15.49
37452;BMP280;23314;51.114;6.900;2022-09-24T00:34:00;101046.06;;;15.45
37452;BMP280;23314;51.114;6.900;2022-09-24T00:36:26;101049.19;;;15.43
37452;BMP280;23314;51.114;6.900;2022-09-24T00:38:54;101049.63;;;15.42
37452;BMP280;23314;51.114;6.900;2022-09-24T00:41:22;101047.25;;;15.44
37452;BMP280;23314;51.114;6.900;2022-09-24T00:43:48;101045.22;;;15.48
37452;BMP280;23314;51.114;6.900;2022-09-24T00:46:20;101052.00;;;15.52
37452;BMP280;23314;51.114;6.900;2022-09-24T00:48:49;101049.94;;;15.57
37452;BMP280;23314;51.114;6.900;2022-09-24T00:51:18;101058.66;;;15.61
37452;BMP280;23314;51.114;6.900;2022-09-24T00:53:46;101050.78;;;15.66
37452;BMP280;23314;51.114;6.900;2022-09-24T00:56:13;101050.72;;;15.70
37452;BMP280;23314;51.114;6.900;2022-09-24T00:58:42;101049.84;;;15.73
37452;BMP280;23314;51.114;6.900;2022-09-24T01:01:08;101051.66;;;15.76
37452;BMP280;23314;51.114;6.900;2022-09-24T01:03:36;101054.25;;;15.80
37452;BMP280;23314;51.114;6.900;2022-09-24T01:06:10;101041.88;;;15.82
37452;BMP280;23314;51.114;6.900;2022-09-24T01:08:36;101040.25;;;15.85
37452;BMP280;23314;51.114;6.900;2022-09-24T01:11:05;101037.88;;;15.87
37452;BMP280;23314;51.114;6.900;2022-09-24T01:13:57;101031.31;;;15.88
37452;BMP280;23314;51.114;6.900;2022-09-24T01:22:53;101018.09;;;15.81
37452;BMP280;23314;51.114;6.900;2022-09-24T01:30:55;101010.78;;;15.81
37452;BMP280;23314;51.114;6.900;2022-09-24T01:33:23;101012.28;;;15.82
37452;BMP280;23314;51.114;6.900;2022-09-24T01:35:52;101010.34;;;15.83
37452;BMP280;23314;51.114;6.900;2022-09-24T01:38:26;101014.97;;;15.82
37452;BMP280;23314;51.114;6.900;2022-09-24T01:40:54;101007.34;;;15.81
37452;BMP280;23314;51.114;6.900;2022-09-24T01:43:22;101008.53;;;15.80
37452;BMP280;23314;51.114;6.900;2022-09-24T01:45:48;101003.25;;;15.76
37452;BMP280;23314;51.114;6.900;2022-09-24T01:48:14;101001.44;;;15.73
37452;BMP280;23314;51.114;6.900;2022-09-24T01:51:09;100998.84;;;15.69
37452;BMP280;23314;51.114;6.900;2022-09-24T01:53:44;100995.41;;;15.69
37452;BMP280;23314;51.114;6.900;2022-09-24T01:56:19;100999.38;;;15.64
37452;BMP280;23314;51.114;6.900;2022-09-24T01:58:50;101002.50;;;15.63
37452;BMP280;23314;51.114;6.900;2022-09-24T02:01:23;100996.81;;;15.61
37452;BMP280;23314;51.114;6.900;2022-09-24T02:03:55;101002.94;;;15.61
37452;BMP280;23314;51.114;6.900;2022-09-24T02:06:34;100995.31;;;15.60
37452;BMP280;23314;51.114;6.900;2022-09-24T02:09:02;100989.59;;;15.58
37452;BMP280;23314;51.114;6.900;2022-09-24T02:11:28;100996.50;;;15.59
37452;BMP280;23314;51.114;6.900;2022-09-24T02:16:32;100992.63;;;15.60
37452;BMP280;23314;51.114;6.900;2022-09-24T02:19:04;100998.31;;;15.62
37452;BMP280;23314;51.114;6.900;2022-09-24T02:21:30;100994.09;;;15.61
37452;BMP280;23314;51.114;6.900;2022-09-24T02:24:02;100988.28;;;15.62
37452;BMP280;23314;51.114;6.900;2022-09-24T02:26:29;100992.94;;;15.62
37452;BMP280;23314;51.114;6.900;2022-09-24T02:28:56;100994.88;;;15.61
37452;BMP280;23314;51.114;6.900;2022-09-24T02:31:32;100987.56;;;15.62
37452;BMP280;23314;51.114;6.900;2022-09-24T02:34:00;100990.69;;;15.60
37452;BMP280;23314;51.114;6.900;2022-09-24T02:36:51;100981.53;;;15.58
37452;BMP280;23314;51.114;6.900;2022-09-24T02:39:18;100978.50;;;15.56
37452;BMP280;23314;51.114;6.900;2022-09-24T02:41:45;100973.59;;;15.54
37452;BMP280;23314;51.114;6.900;2022-09-24T02:44:14;100969.06;;;15.51
37452;BMP280;23314;51.114;6.900;2022-09-24T02:46:41;100968.44;;;15.47
37452;BMP280;23314;51.114;6.900;2022-09-24T02:49:08;100971.66;;;15.42
37452;BMP280;23314;51.114;6.900;2022-09-24T02:51:34;100966.84;;;15.36
37452;BMP280;23314;51.114;6.900;2022-09-24T02:53:59;100965.75;;;15.34
37452;BMP280;23314;51.114;6.900;2022-09-24T02:56:26;100961.69;;;15.29
37452;BMP280;23314;51.114;6.900;2022-09-24T02:58:52;100959.41;;;15.28
37452;BMP280;23314;51.114;6.900;2022-09-24T03:01:18;100957.16;;;15.26
37452;BMP280;23314;51.114;6.900;2022-09-24T03:03:44;100957.16;;;15.26
37452;BMP280;23314;51.114;6.900;2022-09-24T03:06:09;100957.88;;;15.27
37452;BMP280;23314;51.114;6.900;2022-09-24T03:08:36;100958.66;;;15.27
37452;BMP280;23314;51.114;6.900;2022-09-24T03:11:02;100949.41;;;15.28
37452;BMP280;23314;51.114;6.900;2022-09-24T03:13:27;100950.59;;;15.27
37452;BMP280;23314;51.114;6.900;2022-09-24T03:15:52;100938.34;;;15.26
37452;BMP280;23314;51.114;6.900;2022-09-24T03:18:18;100937.59;;;15.26
37452;BMP280;23314;51.114;6.900;2022-09-24T03:20:53;100939.97;;;15.24
37452;BMP280;23314;51.114;6.900;2022-09-24T03:23:19;100939.19;;;15.23
37452;BMP280;23314;51.114;6.900;2022-09-24T03:25:44;100940.72;;;15.24
37452;BMP280;23314;51.114;6.900;2022-09-24T03:28:09;100933.81;;;15.23
37452;BMP280;23314;51.114;6.900;2022-09-24T03:30:35;100933.50;;;15.21
37452;BMP280;23314;51.114;6.900;2022-09-24T03:33:19;100941.34;;;15.15
37452;BMP280;23314;51.114;6.900;2022-09-24T03:35:44;100933.41;;;15.12
37452;BMP280;23314;51.114;6.900;2022-09-24T03:38:10;100931.56;;;15.09
37452;BMP280;23314;51.114;6.900;2022-09-24T03:40:35;100925.22;;;15.02
37452;BMP280;23314;51.114;6.900;2022-09-24T03:43:00;100918.88;;;14.96
37452;BMP280;23314;51.114;6.900;2022-09-24T03:45:26;100918.34;;;14.89
37452;BMP280;23314;51.114;6.900;2022-09-24T03:47:51;100926.50;;;14.85
37452;BMP280;23314;51.114;6.900;2022-09-24T03:50:16;100920.16;;;14.79
37452;BMP280;23314;51.114;6.900;2022-09-24T03:52:42;100914.91;;;14.75
37452;BMP280;23314;51.114;6.900;2022-09-24T03:55:07;100918.84;;;14.70
37452;BMP280;23314;51.114;6.900;2022-09-24T03:57:33;100912.06;;;14.66
37452;BMP280;23314;51.114;6.900;2022-09-24T03:59:58;100918.75;;;14.61
37452;BMP280;23314;51.114;6.900;2022-09-24T04:02:24;100928.06;;;14.57
37452;BMP280;23314;51.114;6.900;2022-09-24T04:04:49;100925.81;;;14.55
37452;BMP280;23314;51.114;6.900;2022-09-24T04:07:16;100923.53;;;14.53
37452;BMP280;23314;51.114;6.900;2022-09-24T04:09:41;100922.81;;;14.53
37452;BMP280;23314;51.114;6.900;2022-09-24T04:12:07;100914.75;;;14.53
37452;BMP280;23314;51.114;6.900;2022-09-24T04:14:32;100920.44;;;14.55
37452;BMP280;23314;51.114;6.900;2022-09-24T04:16:57;100920.34;;;14.59
37452;BMP280;23314;51.114;6.900;2022-09-24T04:19:23;100914.09;;;14.62
37452;BMP280;23314;51.114;6.900;2022-09-24T04:21:49;100922.81;;;14.66
37452;BMP280;23314;51.114;6.900;2022-09-24T04:24:14;100915.84;;;14.68
37452;BMP280;23314;51.114;6.900;2022-09-24T04:26:40;100919.63;;;14.71
37452;BMP280;23314;51.114;6.900;2022-09-24T04:29:05;100917.66;;;14.72
37452;BMP280;23314;51.114;6.900;2022-09-24T04:31:30;100922.72;;;14.69
37452;BMP280;23314;51.114;6.900;2022-09-24T04:33:57;100913.50;;;14.70
37452;BMP280;23314;51.114;6.900;2022-09-24T04:36:23;100914.25;;;14.71
37452;BMP280;23314;51.114;6.900;2022-09-24T04:38:49;100912.75;;;14.70
37452;BMP280;23314;51.114;6.900;2022-09-24T04:41:14;100913.50;;;14.70
37452;BMP280;23314;51.114;6.900;2022-09-24T04:43:43;100914.66;;;14.69
37452;BMP280;23314;51.114;6.900;2022-09-24T04:46:11;100914.25;;;14.71
37452;BMP280;23314;51.114;6.900;2022-09-24T04:48:37;100918.13;;;14.70
37452;BMP280;23314;51.114;6.900;2022-09-24T04:51:07;100912.75;;;14.70
37452;BMP280;23314;51.114;6.900;2022-09-24T04:53:35;100918.44;;;14.72
37452;BMP280;23314;51.114;6.900;2022-09-24T04:56:04;100911.56;;;14.71
37452;BMP280;23314;51.114;6.900;2022-09-24T04:58:30;100913.50;;;14.70
37452;BMP280;23314;51.114;6.900;2022-09-24T05:00:55;100911.97;;;14.69
37452;BMP280;23314;51.114;6.900;2022-09-24T05:03:21;100913.91;;;14.69
37452;BMP280;23314;51.114;6.900;2022-09-24T05:05:46;100918.53;;;14.68
37452;BMP280;23314;51.114;6.900;2022-09-24T05:08:12;100919.69;;;14.67
37452;BMP280;23314;51.114;6.900;2022-09-24T05:10:38;100917.00;;;14.67
37452;BMP280;23314;51.114;6.900;2022-09-24T05:13:04;100918.53;;;14.68
37452;BMP280;23314;51.114;6.900;2022-09-24T05:15:30;100925.06;;;14.67
37452;BMP280;23314;51.114;6.900;2022-09-24T05:17:56;100922.38;;;14.67
37452;BMP280;23314;51.114;6.900;2022-09-24T05:20:21;100922.81;;;14.66
37452;BMP280;23314;51.114;6.900;2022-09-24T05:22:48;100922.09;;;14.65
37452;BMP280;23314;51.114;6.900;2022-09-24T05:25:14;100917.13;;;14.64
37452;BMP280;23314;51.114;6.900;2022-09-24T05:27:45;100922.50;;;14.64
37452;BMP280;23314;51.114;6.900;2022-09-24T05:30:11;100911.00;;;14.63
37452;BMP280;23314;51.114;6.900;2022-09-24T05:32:37;100908.34;;;14.63
37452;BMP280;23314;51.114;6.900;2022-09-24T05:35:03;100900.69;;;14.62
37452;BMP280;23314;51.114;6.900;2022-09-24T05:37:31;100906.81;;;14.62
37452;BMP280;23314;51.114;6.900;2022-09-24T05:39:57;100909.06;;;14.64
37452;BMP280;23314;51.114;6.900;2022-09-24T05:42:42;100908.34;;;14.63
37452;BMP280;23314;51.114;6.900;2022-09-24T05:45:11;100914.44;;;14.64
37452;BMP280;23314;51.114;6.900;2022-09-24T05:47:36;100915.50;;;14.66
37452;BMP280;23314;51.114;6.900;2022-09-24T05:50:02;100921.19;;;14.68
37452;BMP280;23314;51.114;6.900;2022-09-24T05:52:28;100932.28;;;14.70
37452;BMP280;23314;51.114;6.900;2022-09-24T05:54:53;100926.47;;;14.72
37452;BMP280;23314;51.114;6.900;2022-09-24T05:57:19;100924.13;;;14.74
37452;BMP280;23314;51.114;6.900;2022-09-24T05:59:45;100934.03;;;14.77
37452;BMP280;23314;51.114;6.900;2022-09-24T06:02:12;100932.81;;;14.78
37452;BMP280;23314;51.114;6.900;2022-09-24T06:04:38;100937.34;;;14.81
37452;BMP280;23314;51.114;6.900;2022-09-24T06:07:03;100933.78;;;14.84
37452;BMP280;23314;51.114;6.900;2022-09-24T06:09:28;100932.97;;;14.88
37452;BMP280;23314;51.114;6.900;2022-09-24T06:11:54;100936.41;;;14.88
37452;BMP280;23314;51.114;6.900;2022-09-24T06:14:21;100941.66;;;14.92
37452;BMP280;23314;51.114;6.900;2022-09-24T06:16:46;100940.47;;;14.93
37452;BMP280;23314;51.114;6.900;2022-09-24T06:19:12;100942.41;;;14.92
37452;BMP280;23314;51.114;6.900;2022-09-24T06:21:37;100942.72;;;14.94
37452;BMP280;23314;51.114;6.900;2022-09-24T06:24:03;100943.38;;;14.98
37452;BMP280;23314;51.114;6.900;2022-09-24T06:26:28;100942.84;;;15.03
37452;BMP280;23314;51.114;6.900;2022-09-24T06:28:53;100941.88;;;15.10
37452;BMP280;23314;51.114;6.900;2022-09-24T06:31:19;100937.16;;;15.14
37452;BMP280;23314;51.114;6.900;2022-09-24T06:33:44;100935.88;;;15.19
37452;BMP280;23314;51.114;6.900;2022-09-24T06:36:10;100944.16;;;15.25
37452;BMP280;23314;51.114;6.900;2022-09-24T06:38:36;100945.13;;;15.31
37452;BMP280;23314;51.114;6.900;2022-09-24T06:41:05;100942.19;;;15.38
37452;BMP280;23314;51.114;6.900;2022-09-24T06:43:31;100941.56;;;15.47
37452;BMP280;23314;51.114;6.900;2022-09-24T06:45:57;100946.25;;;15.56
37452;BMP280;23314;51.114;6.900;2022-09-24T06:48:23;100948.28;;;15.64
37452;BMP280;23314;51.114;6.900;2022-09-24T06:50:50;100950.75;;;15.72
37452;BMP280;23314;51.114;6.900;2022-09-24T06:53:16;100955.78;;;15.82
37452;BMP280;23314;51.114;6.900;2022-09-24T06:55:42;100960.06;;;15.93
37452;BMP280;23314;51.114;6.900;2022-09-24T06:58:10;100955.06;;;16.04
37452;BMP280;23314;51.114;6.900;2022-09-24T07:00:37;100956.94;;;16.16
37452;BMP280;23314;51.114;6.900;2022-09-24T07:03:03;100960.00;;;16.28
37452;BMP280;23314;51.114;6.900;2022-09-24T07:05:29;100954.56;;;16.41
37452;BMP280;23314;51.114;6.900;2022-09-24T07:07:54;100954.63;;;16.50
37452;BMP280;23314;51.114;6.900;2022-09-24T07:10:20;100955.56;;;16.56
37452;BMP280;23314;51.114;6.900;2022-09-24T07:12:45;100959.50;;;16.64
37452;BMP280;23314;51.114;6.900;2022-09-24T07:15:10;100955.69;;;16.75
37452;BMP280;23314;51.114;6.900;2022-09-24T07:17:36;100963.38;;;16.85
37452;BMP280;23314;51.114;6.900;2022-09-24T07:20:02;100957.25;;;16.94
37452;BMP280;23314;51.114;6.900;2022-09-24T07:22:28;100969.28;;;17.12
37452;BMP280;23314;51.114;6.900;2022-09-24T07:24:53;100978.19;;;17.31
37452;BMP280;23314;51.114;6.900;2022-09-24T07:27:19;100976.72;;;17.48
37452;BMP280;23314;51.114;6.900;2022-09-24T07:29:46;100977.50;;;17.67
37452;BMP280;23314;51.114;6.900;2022-09-24T07:32:11;100979.78;;;17.87
37452;BMP280;23314;51.114;6.900;2022-09-24T07:34:36;100980.69;;;18.03
37452;BMP280;23314;51.114;6.900;2022-09-24T07:37:02;100982.75;;;18.17
37452;BMP280;23314;51.114;6.900;2022-09-24T07:39:28;100976.16;;;18.28
37452;BMP280;23314;51.114;6.900;2022-09-24T07:41:54;100982.28;;;18.37
37452;BMP280;23314;51.114;6.900;2022-09-24T07:44:21;100981.63;;;18.52
37452;BMP280;23314;51.114;6.900;2022-09-24T07:46:50;100975.47;;;18.61
37452;BMP280;23314;51.114;6.900;2022-09-24T07:49:17;100986.09;;;18.73
37452;BMP280;23314;51.114;6.900;2022-09-24T07:51:43;100983.16;;;18.86
37452;BMP280;23314;51.114;6.900;2022-09-24T07:54:08;100982.69;;;18.97
37452;BMP280;23314;51.114;6.900;2022-09-24T07:56:34;100991.50;;;19.07
37452;BMP280;23314;51.114;6.900;2022-09-24T07:59:00;100985.28;;;19.16
37452;BMP280;23314;51.114;6.900;2022-09-24T08:01:25;100981.19;;;19.20
37452;BMP280;23314;51.114;6.900;2022-09-24T08:03:52;100985.53;;;19.27
37452;BMP280;23314;51.114;6.900;2022-09-24T08:06:18;100987.28;;;19.30
37452;BMP280;23314;51.114;6.900;2022-09-24T08:08:44;100987.59;;;19.32
37452;BMP280;23314;51.114;6.900;2022-09-24T08:11:12;100983.28;;;19.25
37452;BMP280;23314;51.114;6.900;2022-09-24T08:13:38;100988.44;;;19.14
37452;BMP280;23314;51.114;6.900;2022-09-24T08:16:04;100990.53;;;19.10
37452;BMP280;23314;51.114;6.900;2022-09-24T08:18:31;100995.88;;;19.04
37452;BMP280;23314;51.114;6.900;2022-09-24T08:20:58;100985.94;;;19.01
37452;BMP280;23314;51.114;6.900;2022-09-24T08:23:24;100988.81;;;18.98
37452;BMP280;23314;51.114;6.900;2022-09-24T08:25:53;100989.88;;;19.00
37452;BMP280;23314;51.114;6.900;2022-09-24T08:28:18;100984.00;;;19.02
37452;BMP280;23314;51.114;6.900;2022-09-24T08:30:44;100988.09;;;18.97
37452;BMP280;23314;51.114;6.900;2022-09-24T08:33:10;100985.78;;;19.05
37452;BMP280;23314;51.114;6.900;2022-09-24T08:35:36;100989.19;;;19.15
37452;BMP280;23314;51.114;6.900;2022-09-24T08:38:04;100986.41;;;19.24
37452;BMP280;23314;51.114;6.900;2022-09-24T08:40:35;100989.25;;;19.30
37452;BMP280;23314;51.114;6.900;2022-09-24T08:45:41;100987.25;;;19.39
37452;BMP280;23314;51.114;6.900;2022-09-24T08:48:44;100983.53;;;19.52
37452;BMP280;23314;51.114;6.900;2022-09-24T08:51:13;100988.25;;;19.66
37452;BMP280;23314;51.114;6.900;2022-09-24T08:53:59;100991.66;;;19.76
37452;BMP280;23314;51.114;6.900;2022-09-24T08:56:31;100992.69;;;19.78
37452;BMP280;23314;51.114;6.900;2022-09-24T08:59:09;100993.31;;;19.88
37452;BMP280;23314;51.114;6.900;2022-09-24T09:01:44;100988.72;;;20.04
37452;BMP280;23314;51.114;6.900;2022-09-24T09:07:13;100997.88;;;20.36
37452;BMP280;23314;51.114;6.900;2022-09-24T09:10:17;100994.28;;;20.45
37452;BMP280;23314;51.114;6.900;2022-09-24T09:12:45;100996.03;;;20.63
37452;BMP280;23314;51.114;6.900;2022-09-24T09:18:17;101000.25;;;20.99
37452;BMP280;23314;51.114;6.900;2022-09-24T09:20:46;100998.94;;;20.95
37452;BMP280;23314;51.114;6.900;2022-09-24T09:23:21;100998.13;;;20.89
37452;BMP280;23314;51.114;6.900;2022-09-24T09:25:55;100994.06;;;20.78
37452;BMP280;23314;51.114;6.900;2022-09-24T09:28:20;100999.47;;;20.78
37452;BMP280;23314;51.114;6.900;2022-09-24T09:30:58;100995.59;;;20.85
37452;BMP280;23314;51.114;6.900;2022-09-24T09:36:55;100994.31;;;20.80
37452;BMP280;23314;51.114;6.900;2022-09-24T09:44:46;100993.75;;;20.76
37452;BMP280;23314;51.114;6.900;2022-09-24T09:50:16;100992.06;;;20.79
37452;BMP280;23314;51.114;6.900;2022-09-24T09:52:43;100991.59;;;20.80
37452;BMP280;23314;51.114;6.900;2022-09-24T09:55:23;100994.97;;;20.75
37452;BMP280;23314;51.114;6.900;2022-09-24T09:57:50;100987.69;;;20.81
37452;BMP280;23314;51.114;6.900;2022-09-24T10:00:24;100993.44;;;20.89
37452;BMP280;23314;51.114;6.900;2022-09-24T10:02:50;100981.78;;;21.04
37452;BMP280;23314;51.114;6.900;2022-09-24T10:05:20;100984.72;;;21.00
37452;BMP280;23314;51.114;6.900;2022-09-24T10:07:46;100982.06;;;21.06
37452;BMP280;23314;51.114;6.900;2022-09-24T10:10:16;100988.94;;;21.22
37452;BMP280;23314;51.114;6.900;2022-09-24T10:12:42;100993.06;;;21.38
37452;BMP280;23314;51.114;6.900;2022-09-24T10:17:39;100990.22;;;21.47
37452;BMP280;23314;51.114;6.900;2022-09-24T10:20:16;100990.56;;;21.55
37452;BMP280;23314;51.114;6.900;2022-09-24T10:22:50;100988.41;;;21.64
37452;BMP280;23314;51.114;6.900;2022-09-24T10:25:19;100987.78;;;21.75
37452;BMP280;23314;51.114;6.900;2022-09-24T10:27:49;100994.31;;;21.83
37452;BMP280;23314;51.114;6.900;2022-09-24T10:30:16;100987.69;;;21.90
37452;BMP280;23314;51.114;6.900;2022-09-24T10:33:07;100999.13;;;22.00
37452;BMP280;23314;51.114;6.900;2022-09-24T10:35:35;100994.94;;;22.04
37452;BMP280;23314;51.114;6.900;2022-09-24T10:38:16;100996.72;;;22.08
37452;BMP280;23314;51.114;6.900;2022-09-24T10:40:42;101000.91;;;22.09
37452;BMP280;23314;51.114;6.900;2022-09-24T10:43:19;100996.72;;;22.08
37452;BMP280;23314;51.114;6.900;2022-09-24T10:45:56;100995.97;;;22.07
37452;BMP280;23314;51.114;6.900;2022-09-24T10:51:09;100998.34;;;22.26
37452;BMP280;23314;51.114;6.900;2022-09-24T10:56:37;100986.13;;;22.47
37452;BMP280;23314;51.114;6.900;2022-09-24T11:04:32;100989.16;;;22.61
37452;BMP280;23314;51.114;6.900;2022-09-24T11:07:17;100991.63;;;22.59
37452;BMP280;23314;51.114;6.900;2022-09-24T11:10:12;100984.47;;;22.61
37452;BMP280;23314;51.114;6.900;2022-09-24T11:16:07;100982.50;;;22.62
37452;BMP280;23314;51.114;6.900;2022-09-24T11:18:58;100984.50;;;22.67
37452;BMP280;23314;51.114;6.900;2022-09-24T11:30:17;100977.34;;;22.64
37452;BMP280;23314;51.114;6.900;2022-09-24T11:44:27;100974.84;;;21.91
37452;BMP280;23314;51.114;6.900;2022-09-24T11:52:52;100972.44;;;21.46
37452;BMP280;23314;51.114;6.900;2022-09-24T11:55:41;100962.34;;;21.26
37452;BMP280;23314;51.114;6.900;2022-09-24T11:58:28;100966.63;;;21.12
37452;BMP280;23314;51.114;6.900;2022-09-24T12:01:03;100961.59;;;21.05
37452;BMP280;23314;51.114;6.900;2022-09-24T12:03:43;100964.63;;;20.92
37452;BMP280;23314;51.114;6.900;2022-09-24T12:06:14;100959.97;;;20.92
37452;BMP280;23314;51.114;6.900;2022-09-24T12:08:56;100965.19;;;20.96
37452;BMP280;23314;51.114;6.900;2022-09-24T12:11:35;100958.19;;;20.89
37452;BMP280;23314;51.114;6.900;2022-09-24T12:14:23;100956.56;;;20.77
37452;BMP280;23314;51.114;6.900;2022-09-24T12:16:55;100959.47;;;20.73
37452;BMP280;23314;51.114;6.900;2022-09-24T12:19:30;100954.97;;;20.70
37452;BMP280;23314;51.114;6.900;2022-09-24T12:21:57;100952.53;;;20.72
37452;BMP280;23314;51.114;6.900;2022-09-24T12:24:33;100951.88;;;20.77
37452;BMP280;23314;51.114;6.900;2022-09-24T12:27:02;100946.06;;;20.85
37452;BMP280;23314;51.114;6.900;2022-09-24T12:32:28;100950.13;;;20.95
37452;BMP280;23314;51.114;6.900;2022-09-24T12:35:44;100939.63;;;21.03
37452;BMP280;23314;51.114;6.900;2022-09-24T12:38:13;100943.47;;;21.16
37452;BMP280;23314;51.114;6.900;2022-09-24T12:43:24;100943.09;;;21.50
37452;BMP280;23314;51.114;6.900;2022-09-24T12:46:01;100940.19;;;21.54
37452;BMP280;23314;51.114;6.900;2022-09-24T12:48:28;100942.44;;;21.55
37452;BMP280;23314;51.114;6.900;2022-09-24T12:50:57;100941.03;;;21.65
37452;BMP280;23314;51.114;6.900;2022-09-24T12:53:33;100937.66;;;21.76
37452;BMP280;23314;51.114;6.900;2022-09-24T12:55:59;100938.00;;;21.84
37452;BMP280;23314;51.114;6.900;2022-09-24T12:58:28;100940.84;;;22.01
37452;BMP280;23314;51.114;6.900;2022-09-24T13:03:35;100934.34;;;22.25
37452;BMP280;23314;51.114;6.900;2022-09-24T13:06:03;100929.88;;;22.21
37452;BMP280;23314;51.114;6.900;2022-09-24T13:08:39;100935.81;;;22.26
37452;BMP280;23314;51.114;6.900;2022-09-24T13:11:24;100932.47;;;22.36
37452;BMP280;23314;51.114;6.900;2022-09-24T13:14:07;100936.94;;;22.45
37452;BMP280;23314;51.114;6.900;2022-09-24T13:16:42;100933.31;;;22.22
37452;BMP280;23314;51.114;6.900;2022-09-24T13:21:58;100942.09;;;22.06
37452;BMP280;23314;51.114;6.900;2022-09-24T13:24:26;100938.59;;;21.99
37452;BMP280;23314;51.114;6.900;2022-09-24T13:26:52;100936.34;;;21.92
37452;BMP280;23314;51.114;6.900;2022-09-24T13:29:23;100937.78;;;21.88
37452;BMP280;23314;51.114;6.900;2022-09-24T13:31:54;100936.28;;;21.86
37452;BMP280;23314;51.114;6.900;2022-09-24T13:34:28;100934.28;;;21.81
37452;BMP280;23314;51.114;6.900;2022-09-24T13:37:00;100936.66;;;21.74
37452;BMP280;23314;51.114;6.900;2022-09-24T13:39:34;100932.22;;;21.71
37452;BMP280;23314;51.114;6.900;2022-09-24T13:42:20;100935.44;;;21.75
37452;BMP280;23314;51.114;6.900;2022-09-24T13:44:49;100929.50;;;21.71
37452;BMP280;23314;51.114;6.900;2022-09-24T13:47:36;100933.19;;;21.67
37452;BMP280;23314;51.114;6.900;2022-09-24T13:52:44;100933.81;;;21.57
37452;BMP280;23314;51.114;6.900;2022-09-24T13:55:19;100937.41;;;21.48
37452;BMP280;23314;51.114;6.900;2022-09-24T13:57:46;100938.50;;;21.36
37452;BMP280;23314;51.114;6.900;2022-09-24T14:00:19;100934.50;;;21.25
37452;BMP280;23314;51.114;6.900;2022-09-24T14:02:53;100933.34;;;21.11
37452;BMP280;23314;51.114;6.900;2022-09-24T14:05:20;100932.16;;;20.97
37452;BMP280;23314;51.114;6.900;2022-09-24T14:10:26;100936.00;;;20.70
37452;BMP280;23314;51.114;6.900;2022-09-24T14:13:22;100933.09;;;20.53
37452;BMP280;23314;51.114;6.900;2022-09-24T14:16:24;100925.72;;;20.39
37452;BMP280;23314;51.114;6.900;2022-09-24T14:19:04;100931.13;;;20.24
37452;BMP280;23314;51.114;6.900;2022-09-24T14:22:03;100933.56;;;20.07
37452;BMP280;23314;51.114;6.900;2022-09-24T14:24:32;100929.94;;;19.95
37452;BMP280;23314;51.114;6.900;2022-09-24T14:27:02;100929.59;;;19.87
37452;BMP280;23314;51.114;6.900;2022-09-24T14:29:46;100926.47;;;19.80
37452;BMP280;23314;51.114;6.900;2022-09-24T14:34:52;100920.59;;;19.66
37452;BMP280;23314;51.114;6.900;2022-09-24T14:37:26;100930.84;;;19.62
37452;BMP280;23314;51.114;6.900;2022-09-24T14:40:02;100922.47;;;19.60
37452;BMP280;23314;51.114;6.900;2022-09-24T14:42:39;100927.59;;;19.58
37452;BMP280;23314;51.114;6.900;2022-09-24T14:45:07;100914.53;;;19.56
37452;BMP280;23314;51.114;6.900;2022-09-24T14:47:34;100922.81;;;19.53
37452;BMP280;23314;51.114;6.900;2022-09-24T14:50:01;100923.56;;;19.53
37452;BMP280;23314;51.114;6.900;2022-09-24T14:52:36;100917.97;;;19.57
37452;BMP280;23314;51.114;6.900;2022-09-24T14:55:15;100922.38;;;19.54
37452;BMP280;23314;51.114;6.900;2022-09-24T14:57:42;100919.09;;;19.50
37452;BMP280;23314;51.114;6.900;2022-09-24T15:02:57;100922.63;;;19.41
37452;BMP280;23314;51.114;6.900;2022-09-24T15:05:26;100929.41;;;19.37
37452;BMP280;23314;51.114;6.900;2022-09-24T15:08:23;100926.84;;;19.33
37452;BMP280;23314;51.114;6.900;2022-09-24T15:11:15;100922.84;;;19.29
37452;BMP280;23314;51.114;6.900;2022-09-24T15:13:42;100917.91;;;19.27
37452;BMP280;23314;51.114;6.900;2022-09-24T15:16:20;100924.81;;;19.28
37452;BMP280;23314;51.114;6.900;2022-09-24T15:18:57;100933.38;;;19.26
37452;BMP280;23314;51.114;6.900;2022-09-24T15:21:23;100929.34;;;19.22
37452;BMP280;23314;51.114;6.900;2022-09-24T15:23:48;100927.72;;;19.15
37452;BMP280;23314;51.114;6.900;2022-09-24T15:26:14;100924.94;;;19.09
37452;BMP280;23314;51.114;6.900;2022-09-24T15:28:40;100927.81;;;19.06
37452;BMP280;23314;51.114;6.900;2022-09-24T15:31:05;100932.44;;;19.05
37452;BMP280;23314;51.114;6.900;2022-09-24T15:33:30;100931.13;;;19.01
37452;BMP280;23314;51.114;6.900;2022-09-24T15:35:55;100916.88;;;19.00
37452;BMP280;23314;51.114;6.900;2022-09-24T15:38:21;100923.47;;;18.99
37452;BMP280;23314;51.114;6.900;2022-09-24T15:40:46;100925.63;;;18.95
37452;BMP280;23314;51.114;6.900;2022-09-24T15:43:20;100919.16;;;18.92
37452;BMP280;23314;51.114;6.900;2022-09-24T15:45:46;100916.44;;;18.92
37452;BMP280;23314;51.114;6.900;2022-09-24T15:48:11;100920.53;;;18.88
37452;BMP280;23314;51.114;6.900;2022-09-24T15:50:38;100921.47;;;18.85
37452;BMP280;23314;51.114;6.900;2022-09-24T15:53:05;100922.84;;;18.80